Terminal Aerodrome Forecast
Issued by NWS

Home | Current Version | Previous Version | Text Only | Print | Product List | Glossary On
Versions: 1 2 3 4 5 6 7 8 9 10 11 12 13 14 15 16 17
454
FTUS41 KPBZ 041121
TAFFKL
TAF
KFKL 041121Z 0412/0512 VRB03KT P6SM OVC035
     FM041500 12004KT P6SM OVC090
     FM050400 14006KT 4SM -SHRASN BKN015
     FM050600 22008KT 6SM -SHRASN BKN006
      AMD NOT SKED=

USA.gov is the U.S. government's official web portal to all federal, state and local government web resources and services.